Terminal Aerodrome Forecast
Issued by NWS

Current Version | Previous Version | Text Only | Print | Product List | Glossary Off
Versions: 1 2 3 4 5 6 7 8 9 10 11 12 13 14 15 16 17 18 19 20 21 22 23

000
FTUS41 KPBZ 171723
TAFHLG
TAF
KHLG 171723Z 1718/1818 00000KT P6SM BKN050
     FM180000 00000KT P6SM SCT250
     FM180500 00000KT 1/2SM FG SCT002
     FM181400 00000KT P6SM SCT100=

USA.gov is the U.S. government's official web portal to all federal, state and local government web resources and services.